createdAt,value
2023-03-17T00:02:21.732Z,1.60
2023-03-17T00:05:20.907Z,1.87
2023-03-17T00:08:16.036Z,2.10
2023-03-17T00:11:07.575Z,2.13
2023-03-17T00:13:55.859Z,2.10
2023-03-17T00:16:46.024Z,1.70
2023-03-17T00:19:36.518Z,1.90
2023-03-17T00:22:24.735Z,1.90
2023-03-17T00:25:23.434Z,1.90
2023-03-17T00:28:18.778Z,2.10
2023-03-17T00:31:15.441Z,2.20
2023-03-17T00:34:03.785Z,2.03
2023-03-17T00:36:52.515Z,1.93
2023-03-17T00:39:40.951Z,2.00
2023-03-17T00:42:29.553Z,2.13
2023-03-17T00:45:19.837Z,2.20
2023-03-17T00:48:14.010Z,2.00
2023-03-17T00:51:02.288Z,2.07
2023-03-17T00:53:50.645Z,2.57
2023-03-17T00:56:40.361Z,2.00
2023-03-17T00:59:30.957Z,2.10
2023-03-17T01:02:20.605Z,1.90
2023-03-17T01:05:09.163Z,2.20
2023-03-17T01:07:58.998Z,1.87
2023-03-17T01:10:48.026Z,2.20
2023-03-17T01:13:36.819Z,2.00
2023-03-17T01:16:25.152Z,2.00
2023-03-17T01:19:15.260Z,2.20
2023-03-17T01:22:03.469Z,2.20
2023-03-17T01:24:51.703Z,2.10
2023-03-17T01:27:41.765Z,2.13
2023-03-17T01:30:32.969Z,2.10
2023-03-17T01:33:21.244Z,2.30
2023-03-17T01:36:12.306Z,2.67
2023-03-17T01:39:00.608Z,2.20
2023-03-17T01:41:48.834Z,2.20
2023-03-17T01:44:37.148Z,2.30
2023-03-17T01:47:27.689Z,2.33
2023-03-17T01:50:16.356Z,2.07
2023-03-17T01:53:06.174Z,2.47
2023-03-17T01:55:54.867Z,2.50
2023-03-17T01:58:44.474Z,2.80
2023-03-17T02:01:38.728Z,2.53
2023-03-17T02:04:27.223Z,2.40
2023-03-17T02:07:15.638Z,2.53
2023-03-17T02:10:06.689Z,2.23
2023-03-17T02:12:59.862Z,2.37
2023-03-17T02:15:50.076Z,2.60
2023-03-17T02:18:38.270Z,2.50
2023-03-17T02:21:42.582Z,2.27
2023-03-17T02:24:34.717Z,2.43
2023-03-17T02:27:29.804Z,2.50
2023-03-17T02:30:21.208Z,2.53
2023-03-17T02:33:09.473Z,2.63
2023-03-17T02:35:58.951Z,2.53
2023-03-17T02:38:48.888Z,2.70
2023-03-17T02:41:37.422Z,2.30
2023-03-17T02:44:25.984Z,2.37
2023-03-17T02:47:14.502Z,2.53
2023-03-17T02:50:03.021Z,2.90
2023-03-17T02:52:51.735Z,3.00
2023-03-17T02:55:42.203Z,2.73
2023-03-17T02:58:30.490Z,2.50
2023-03-17T03:01:18.878Z,2.73
2023-03-17T03:04:07.641Z,3.00
2023-03-17T03:06:57.015Z,2.70
2023-03-17T03:09:45.551Z,2.50
2023-03-17T03:12:35.104Z,2.73
2023-03-17T03:15:23.401Z,2.83
2023-03-17T03:18:12.442Z,2.77
2023-03-17T03:21:01.075Z,2.90
2023-03-17T03:23:49.291Z,2.97
2023-03-17T03:26:37.655Z,3.10
2023-03-17T03:29:27.489Z,2.90
2023-03-17T03:32:15.843Z,2.73
2023-03-17T03:35:04.343Z,3.00
2023-03-17T03:37:52.679Z,2.80
2023-03-17T03:40:41.370Z,2.53
2023-03-17T03:43:29.884Z,2.63
2023-03-17T03:46:19.716Z,2.70
2023-03-17T03:49:08.002Z,2.83
2023-03-17T03:51:56.305Z,2.67
2023-03-17T03:54:44.494Z,3.03
2023-03-17T03:57:32.839Z,2.90
2023-03-17T04:00:22.079Z,2.73
2023-03-17T04:03:12.726Z,3.00
2023-03-17T04:06:01.032Z,3.00
2023-03-17T04:08:49.293Z,2.60
2023-03-17T04:11:37.646Z,3.00
2023-03-17T04:14:25.867Z,3.13
2023-03-17T04:17:15.186Z,2.77
2023-03-17T04:20:05.478Z,2.67
2023-03-17T04:22:54.373Z,2.87
2023-03-17T04:25:42.630Z,3.10
2023-03-17T04:28:32.245Z,2.77
2023-03-17T04:31:21.168Z,2.80
2023-03-17T04:34:13.585Z,2.70
2023-03-17T04:37:03.143Z,2.70
2023-03-17T04:39:52.271Z,2.90
2023-03-17T04:42:40.650Z,2.65
2023-03-17T04:45:28.904Z,2.70
2023-03-17T04:48:17.120Z,2.70
2023-03-17T04:51:06.100Z,3.30
2023-03-17T04:53:56.095Z,2.50
2023-03-17T04:56:44.368Z,3.00
2023-03-17T04:59:32.624Z,2.87
2023-03-17T05:02:20.965Z,2.70
2023-03-17T05:05:10.035Z,2.70
2023-03-17T05:07:58.174Z,3.00
2023-03-17T05:10:47.807Z,2.70
2023-03-17T05:13:36.891Z,2.70
2023-03-17T05:16:25.375Z,2.70
2023-03-17T05:19:13.638Z,3.00
2023-03-17T05:22:01.898Z,2.70
2023-03-17T05:24:50.061Z,3.00
2023-03-17T05:27:39.670Z,2.80
2023-03-17T05:30:28.203Z,2.87
2023-03-17T05:33:17.552Z,2.70
2023-03-17T05:36:07.197Z,3.00
2023-03-17T05:38:55.622Z,2.60
2023-03-17T05:41:43.850Z,2.77
2023-03-17T05:44:33.552Z,2.97
2023-03-17T05:47:22.893Z,2.57
2023-03-17T05:50:13.040Z,3.00
2023-03-17T05:53:01.835Z,2.70
2023-03-17T05:55:50.090Z,2.77
2023-03-17T05:58:38.297Z,2.70
2023-03-17T06:01:28.016Z,2.60
2023-03-17T06:04:16.414Z,2.60
2023-03-17T06:07:04.953Z,2.70
2023-03-17T06:09:53.139Z,2.60
2023-03-17T06:12:41.378Z,2.73
2023-03-17T06:15:30.097Z,2.87
2023-03-17T06:18:20.546Z,3.00
2023-03-17T06:21:08.742Z,2.53
2023-03-17T06:23:56.960Z,3.10
2023-03-17T06:26:45.131Z,2.80
2023-03-17T06:29:33.608Z,2.80
2023-03-17T06:32:22.075Z,3.07
2023-03-17T06:35:12.670Z,3.00
2023-03-17T06:38:01.306Z,2.63
2023-03-17T06:40:49.571Z,2.93
2023-03-17T06:43:37.794Z,2.50
2023-03-17T06:46:26.107Z,3.13
2023-03-17T06:49:14.502Z,2.73
2023-03-17T06:52:04.321Z,2.90
2023-03-17T06:54:52.637Z,2.80
2023-03-17T06:57:41.110Z,2.90
2023-03-17T07:00:30.479Z,3.03
2023-03-17T07:03:18.717Z,2.87
2023-03-17T07:06:07.358Z,2.95
2023-03-17T07:08:57.777Z,2.97
2023-03-17T07:11:45.997Z,2.70
2023-03-17T07:14:35.655Z,3.00
2023-03-17T07:17:23.965Z,2.80
2023-03-17T07:20:13.975Z,3.07
2023-03-17T07:23:02.602Z,2.60
2023-03-17T07:25:52.668Z,3.07
2023-03-17T07:28:41.116Z,2.80
2023-03-17T07:31:29.458Z,3.10
2023-03-17T07:34:17.945Z,3.50
2023-03-17T07:37:06.482Z,2.93
2023-03-17T07:39:54.830Z,3.23
2023-03-17T07:42:45.539Z,3.30
2023-03-17T07:45:36.051Z,2.87
2023-03-17T07:48:24.430Z,3.10
2023-03-17T07:51:15.620Z,2.90
2023-03-17T07:54:05.936Z,2.93
2023-03-17T07:56:54.524Z,3.30
2023-03-17T07:59:44.591Z,3.60
2023-03-17T08:02:32.881Z,3.10
2023-03-17T08:05:21.905Z,3.60
2023-03-17T08:08:10.752Z,3.30
2023-03-17T08:11:02.165Z,3.30
2023-03-17T08:13:51.065Z,3.47
2023-03-17T08:16:41.435Z,3.10
2023-03-17T08:19:29.910Z,3.53
2023-03-17T08:22:18.457Z,3.50
2023-03-17T08:25:07.425Z,3.77
2023-03-17T08:27:55.946Z,3.57
2023-03-17T08:30:44.847Z,3.30
2023-03-17T08:33:34.735Z,3.40
2023-03-17T08:36:24.081Z,3.10
2023-03-17T08:39:12.937Z,3.30
2023-03-17T08:42:01.312Z,3.27
2023-03-17T08:44:49.534Z,3.00
2023-03-17T08:47:38.297Z,3.40
2023-03-17T08:50:27.965Z,3.10
2023-03-17T08:53:16.318Z,3.10
2023-03-17T08:56:07.070Z,3.27
2023-03-17T08:58:55.966Z,3.00
2023-03-17T09:01:45.583Z,3.40
2023-03-17T09:04:34.052Z,2.80
2023-03-17T09:07:23.751Z,2.93
2023-03-17T09:10:13.887Z,3.20
2023-03-17T09:13:04.132Z,2.90
2023-03-17T09:15:53.534Z,3.13
2023-03-17T09:18:42.300Z,2.77
2023-03-17T09:21:30.638Z,3.20
2023-03-17T09:24:20.827Z,3.03
2023-03-17T09:27:09.400Z,2.90
2023-03-17T09:29:58.233Z,2.90
2023-03-17T09:32:47.125Z,3.10
2023-03-17T09:35:35.702Z,2.90
2023-03-17T09:38:24.534Z,2.90
2023-03-17T09:41:46.248Z,2.80
2023-03-17T09:44:58.108Z,2.83
2023-03-17T09:48:17.525Z,2.60
2023-03-17T09:51:09.117Z,2.30
2023-03-17T09:54:00.668Z,2.20
2023-03-17T09:56:58.709Z,2.07
2023-03-17T09:59:49.342Z,2.43
2023-03-17T10:02:39.002Z,2.17
2023-03-17T10:05:30.253Z,2.17
2023-03-17T10:08:31.173Z,2.80
2023-03-17T10:11:31.565Z,2.30
2023-03-17T10:14:39.732Z,2.30
2023-03-17T10:17:32.820Z,2.00
2023-03-17T10:20:26.525Z,2.37
2023-03-17T10:23:18.867Z,2.30
2023-03-17T10:26:14.829Z,2.13
2023-03-17T10:29:04.905Z,2.27
2023-03-17T10:31:58.327Z,1.90
2023-03-17T10:34:49.483Z,2.40
2023-03-17T10:37:43.892Z,2.10
2023-03-17T10:40:32.891Z,1.87
2023-03-17T10:43:23.061Z,2.10
2023-03-17T10:46:20.023Z,2.00
2023-03-17T10:49:17.276Z,2.10
2023-03-17T10:52:09.075Z,2.00
2023-03-17T10:55:02.867Z,2.00
2023-03-17T10:57:58.807Z,1.90
2023-03-17T11:00:56.926Z,1.80
2023-03-17T11:03:45.350Z,2.07
2023-03-17T11:06:40.060Z,1.73
2023-03-17T11:09:35.149Z,1.80
2023-03-17T11:12:27.501Z,1.90
2023-03-17T11:15:17.930Z,2.57
2023-03-17T11:18:14.373Z,2.10
2023-03-17T11:21:06.837Z,2.00
2023-03-17T11:24:04.628Z,2.00
2023-03-17T11:26:58.184Z,2.00
2023-03-17T11:30:10.351Z,1.70
2023-03-17T11:33:06.218Z,1.90
2023-03-17T11:35:59.171Z,1.77
2023-03-17T11:38:59.628Z,1.87
2023-03-17T11:42:05.998Z,1.70
2023-03-17T11:45:14.613Z,1.80
2023-03-17T11:48:14.121Z,1.60
2023-03-17T11:51:10.198Z,1.63
2023-03-17T11:54:10.720Z,2.00
2023-03-17T11:57:01.479Z,1.80
2023-03-17T11:59:55.426Z,2.33
2023-03-17T12:02:50.058Z,2.13
2023-03-17T12:05:39.876Z,2.20
2023-03-17T12:08:35.544Z,1.83
2023-03-17T12:11:29.261Z,2.37
2023-03-17T12:14:28.250Z,2.00
2023-03-17T12:17:20.961Z,2.17
2023-03-17T12:20:16.568Z,2.17
2023-03-17T12:23:12.963Z,2.30
2023-03-17T12:26:07.310Z,2.30
2023-03-17T12:29:01.401Z,2.60
2023-03-17T12:31:56.116Z,2.20
2023-03-17T12:34:51.117Z,2.10
2023-03-17T12:37:41.436Z,2.73
2023-03-17T12:40:34.256Z,2.40
2023-03-17T12:43:37.772Z,2.30
2023-03-17T12:46:51.392Z,2.37
2023-03-17T12:50:11.694Z,2.10
2023-03-17T12:53:26.650Z,2.07
2023-03-17T12:56:20.459Z,2.17
2023-03-17T12:59:14.862Z,2.47
2023-03-17T13:02:19.254Z,2.43
2023-03-17T13:05:10.164Z,2.50
2023-03-17T13:08:02.475Z,1.97
2023-03-17T13:10:51.290Z,2.10
2023-03-17T13:13:47.162Z,2.10
2023-03-17T13:16:39.280Z,2.20
2023-03-17T13:19:32.778Z,2.00
2023-03-17T13:22:36.105Z,2.33
2023-03-17T13:25:36.016Z,2.10
2023-03-17T13:28:27.114Z,2.30
2023-03-17T13:31:37.884Z,2.20
2023-03-17T13:34:32.302Z,2.10
2023-03-17T13:37:26.545Z,2.13
2023-03-17T13:40:21.424Z,2.00
2023-03-17T13:43:31.035Z,2.40
2023-03-17T13:46:28.028Z,2.10
2023-03-17T13:49:24.194Z,1.77
2023-03-17T13:52:17.608Z,2.00
2023-03-17T13:55:36.607Z,2.20
2023-03-17T13:58:26.603Z,2.13
2023-03-17T14:01:16.452Z,1.93
2023-03-17T14:04:10.659Z,2.20
2023-03-17T14:07:07.063Z,2.10
2023-03-17T14:10:02.742Z,2.33
2023-03-17T14:12:57.748Z,2.13
2023-03-17T14:15:52.253Z,2.03
2023-03-17T14:18:43.333Z,1.63
2023-03-17T14:21:33.725Z,1.80
2023-03-17T14:24:24.692Z,1.97
2023-03-17T14:27:16.111Z,1.90
2023-03-17T14:30:17.424Z,1.90
2023-03-17T14:33:08.160Z,1.73
2023-03-17T14:35:59.365Z,1.90
2023-03-17T14:38:50.078Z,1.70
2023-03-17T14:41:38.325Z,2.10
2023-03-17T14:44:28.592Z,2.30
2023-03-17T14:47:21.969Z,2.13
2023-03-17T14:50:18.300Z,1.60
2023-03-17T14:53:11.340Z,1.87
2023-03-17T14:56:00.848Z,2.33
2023-03-17T14:58:52.151Z,2.00
2023-03-17T15:01:47.425Z,2.20
2023-03-17T15:04:36.421Z,2.40
2023-03-17T15:07:36.682Z,2.20
2023-03-17T15:10:26.636Z,2.27
2023-03-17T15:13:14.968Z,2.30
2023-03-17T15:16:07.516Z,1.80
2023-03-17T15:19:05.031Z,2.10
2023-03-17T15:21:53.457Z,2.00
2023-03-17T15:24:44.147Z,1.90
2023-03-17T15:27:33.463Z,2.30
2023-03-17T15:30:23.766Z,2.20
2023-03-17T15:33:21.703Z,2.30
2023-03-17T15:36:31.194Z,1.93
2023-03-17T15:39:20.269Z,2.33
2023-03-17T15:42:09.049Z,2.30
2023-03-17T15:44:57.285Z,2.50
2023-03-17T15:47:47.762Z,2.20
2023-03-17T15:50:36.665Z,2.50
2023-03-17T15:53:26.572Z,2.20
2023-03-17T15:56:20.540Z,2.43
2023-03-17T15:59:09.078Z,2.63
2023-03-17T16:01:57.728Z,2.20
2023-03-17T16:04:46.108Z,2.20
2023-03-17T16:07:34.374Z,2.23
2023-03-17T16:10:26.392Z,2.00
2023-03-17T16:13:14.800Z,2.20
2023-03-17T16:16:05.681Z,2.40
2023-03-17T16:18:54.023Z,1.90
2023-03-17T16:21:42.551Z,2.40
2023-03-17T16:24:31.423Z,2.10
2023-03-17T16:27:21.102Z,2.47
2023-03-17T16:30:16.918Z,2.83
2023-03-17T16:33:16.542Z,2.70
2023-03-17T16:36:05.085Z,2.60
2023-03-17T16:38:53.445Z,2.73
2023-03-17T16:41:41.792Z,2.60
2023-03-17T16:44:32.086Z,2.90
2023-03-17T16:47:20.470Z,3.00
2023-03-17T16:50:16.457Z,3.00
2023-03-17T16:53:04.694Z,3.10
2023-03-17T16:55:54.328Z,3.00
2023-03-17T16:58:42.807Z,2.80
2023-03-17T17:01:32.691Z,2.60
2023-03-17T17:04:20.945Z,2.70
2023-03-17T17:07:09.256Z,2.40
2023-03-17T17:09:57.568Z,2.40
2023-03-17T17:12:46.177Z,2.70
2023-03-17T17:15:36.255Z,2.53
2023-03-17T17:18:26.185Z,2.80
2023-03-17T17:21:14.675Z,2.60
2023-03-17T17:24:03.476Z,2.70
2023-03-17T17:26:51.734Z,2.70
2023-03-17T17:29:40.052Z,2.90
2023-03-17T17:32:28.272Z,2.50
2023-03-17T17:35:18.268Z,2.53
2023-03-17T17:38:08.836Z,2.23
2023-03-17T17:40:59.068Z,2.40
2023-03-17T17:43:47.414Z,2.97
2023-03-17T17:46:36.002Z,2.60
2023-03-17T17:49:24.590Z,3.00
2023-03-17T17:52:14.342Z,2.77
2023-03-17T17:55:02.912Z,2.30
2023-03-17T17:57:52.594Z,3.00
2023-03-17T18:00:40.858Z,2.53
2023-03-17T18:03:31.930Z,2.80
2023-03-17T18:06:20.421Z,2.70
2023-03-17T18:09:10.578Z,2.83
2023-03-17T18:11:58.932Z,3.10
2023-03-17T18:14:47.168Z,2.60
2023-03-17T18:17:35.562Z,2.90
2023-03-17T18:20:24.463Z,3.20
2023-03-17T18:23:12.969Z,3.25
2023-03-17T18:26:04.623Z,3.00
2023-03-17T18:28:53.271Z,3.13
2023-03-17T18:31:44.789Z,3.10
2023-03-17T18:34:36.492Z,3.03
2023-03-17T18:37:25.381Z,2.90
2023-03-17T18:40:18.120Z,3.10
2023-03-17T18:43:08.607Z,2.93
2023-03-17T18:45:57.162Z,2.80
2023-03-17T18:48:45.591Z,2.93
2023-03-17T18:51:34.824Z,3.30
2023-03-17T18:54:23.583Z,3.60
2023-03-17T18:57:12.774Z,2.97
2023-03-17T19:00:02.817Z,3.17
2023-03-17T19:02:51.545Z,3.10
2023-03-17T19:05:40.251Z,3.23
2023-03-17T19:08:28.438Z,3.03
2023-03-17T19:11:19.430Z,3.30
2023-03-17T19:14:09.921Z,3.60
2023-03-17T19:16:59.696Z,3.83
2023-03-17T19:19:50.338Z,3.40
2023-03-17T19:22:38.607Z,3.53
2023-03-17T19:25:27.389Z,3.70
2023-03-17T19:28:15.719Z,3.40
2023-03-17T19:31:04.417Z,3.83
2023-03-17T19:33:55.519Z,3.60
2023-03-17T19:36:46.578Z,3.10
2023-03-17T19:39:34.845Z,3.33
2023-03-17T19:42:23.147Z,3.53
2023-03-17T19:45:12.075Z,3.63
2023-03-17T19:48:00.821Z,3.80
2023-03-17T19:50:51.239Z,3.30
2023-03-17T19:53:39.441Z,3.90
2023-03-17T19:56:28.037Z,3.30
2023-03-17T19:59:17.047Z,3.53
2023-03-17T20:02:06.220Z,3.80
2023-03-17T20:04:54.631Z,3.43
2023-03-17T20:07:44.917Z,3.83
2023-03-17T20:10:33.284Z,3.57
2023-03-17T20:13:22.040Z,3.50
2023-03-17T20:16:10.823Z,3.50
2023-03-17T20:18:59.078Z,3.67
2023-03-17T20:21:47.481Z,3.37
2023-03-17T20:24:38.276Z,3.70
2023-03-17T20:27:27.519Z,3.53
2023-03-17T20:30:16.230Z,4.00
2023-03-17T20:33:05.047Z,3.80
2023-03-17T20:35:53.372Z,3.33
2023-03-17T20:38:43.818Z,3.60
2023-03-17T20:41:33.474Z,3.30
2023-03-17T20:44:22.534Z,3.33
2023-03-17T20:47:11.516Z,3.30
2023-03-17T20:50:00.715Z,3.63
2023-03-17T20:52:49.496Z,3.93
2023-03-17T20:55:37.726Z,4.10
2023-03-17T20:58:27.849Z,3.67
2023-03-17T21:01:20.800Z,3.63
2023-03-17T21:04:10.167Z,3.77
2023-03-17T21:06:58.467Z,3.67
2023-03-17T21:09:47.204Z,3.60
2023-03-17T21:12:36.008Z,3.63
2023-03-17T21:15:25.757Z,3.50
2023-03-17T21:18:15.001Z,3.47
2023-03-17T21:21:03.386Z,3.80
2023-03-17T21:23:51.756Z,3.50
2023-03-17T21:26:40.284Z,3.37
2023-03-17T21:29:28.991Z,3.93
2023-03-17T21:32:18.798Z,3.53
2023-03-17T21:35:08.170Z,4.07
2023-03-17T21:37:57.211Z,3.20
2023-03-17T21:40:45.793Z,3.97
2023-03-17T21:43:34.220Z,3.47
2023-03-17T21:46:22.467Z,3.70
2023-03-17T21:49:13.285Z,4.20
2023-03-17T21:52:01.832Z,3.70
2023-03-17T21:54:50.494Z,3.60
2023-03-17T21:57:39.013Z,3.60
2023-03-17T22:00:35.924Z,3.67
2023-03-17T22:03:32.282Z,4.10
2023-03-17T22:06:22.659Z,3.80
2023-03-17T22:09:11.577Z,4.03
2023-03-17T22:11:59.960Z,4.30
2023-03-17T22:14:48.260Z,4.47
2023-03-17T22:17:36.830Z,3.83
2023-03-17T22:20:24.989Z,4.37
2023-03-17T22:23:14.592Z,4.20
2023-03-17T22:26:02.897Z,4.20
2023-03-17T22:28:51.664Z,3.80
2023-03-17T22:31:39.885Z,4.23
2023-03-17T22:34:28.348Z,3.93
2023-03-17T22:37:16.785Z,4.17
2023-03-17T22:40:08.468Z,3.90
2023-03-17T22:42:57.344Z,3.80
2023-03-17T22:45:46.056Z,4.20
2023-03-17T22:48:36.074Z,4.00
2023-03-17T22:51:26.700Z,3.90
2023-03-17T22:54:14.928Z,4.20
2023-03-17T22:57:05.692Z,4.00
2023-03-17T22:59:55.286Z,4.13
2023-03-17T23:02:44.292Z,3.83
2023-03-17T23:05:32.620Z,4.00
2023-03-17T23:08:21.716Z,3.93
2023-03-17T23:11:12.429Z,4.80
2023-03-17T23:14:02.077Z,4.50
2023-03-17T23:16:51.058Z,4.27
2023-03-17T23:19:39.422Z,4.40
2023-03-17T23:22:27.740Z,3.97
2023-03-17T23:25:16.312Z,4.03
2023-03-17T23:28:05.498Z,4.13
2023-03-17T23:30:55.615Z,4.30
2023-03-17T23:33:44.176Z,3.80
2023-03-17T23:36:32.417Z,3.97
2023-03-17T23:39:20.759Z,3.80
2023-03-17T23:42:09.165Z,3.60
2023-03-17T23:44:57.454Z,4.07
2023-03-17T23:47:49.439Z,4.13
2023-03-17T23:50:38.356Z,4.20
2023-03-17T23:53:28.000Z,3.90
2023-03-17T23:56:16.355Z,4.20
2023-03-17T23:59:07.509Z,3.83
